sensor_id;sensor_type;location;lat;lon;timestamp;temperature;humidity
12604;DHT22;6367;52.508;13.284;2023-12-04T00:00:40;1.70;99.90
12604;DHT22;6367;52.508;13.284;2023-12-04T00:03:06;1.60;99.90
12604;DHT22;6367;52.508;13.284;2023-12-04T00:05:32;2.30;99.90
12604;DHT22;6367;52.508;13.284;2023-12-04T00:07:57;1.90;99.90
12604;DHT22;6367;52.508;13.284;2023-12-04T00:10:23;2.60;99.90
12604;DHT22;6367;52.508;13.284;2023-12-04T00:12:49;2.40;99.90
12604;DHT22;6367;52.508;13.284;2023-12-04T00:15:15;1.60;99.90
12604;DHT22;6367;52.508;13.284;2023-12-04T00:17:41;2.40;99.90
12604;DHT22;6367;52.508;13.284;2023-12-04T00:20:08;1.50;99.90
12604;DHT22;6367;52.508;13.284;2023-12-04T00:22:37;1.60;99.90
12604;DHT22;6367;52.508;13.284;2023-12-04T00:25:04;2.00;99.90
12604;DHT22;6367;52.508;13.284;2023-12-04T00:27:30;1.50;99.90
12604;DHT22;6367;52.508;13.284;2023-12-04T00:29:56;1.40;99.90
12604;DHT22;6367;52.508;13.284;2023-12-04T00:32:22;1.50;99.90
12604;DHT22;6367;52.508;13.284;2023-12-04T00:34:47;1.50;99.90
12604;DHT22;6367;52.508;13.284;2023-12-04T00:37:13;1.70;99.90
12604;DHT22;6367;52.508;13.284;2023-12-04T00:39:39;2.30;99.90
12604;DHT22;6367;52.508;13.284;2023-12-04T00:42:05;1.50;99.90
12604;DHT22;6367;52.508;13.284;2023-12-04T00:44:31;1.40;99.90
12604;DHT22;6367;52.508;13.284;2023-12-04T00:46:57;1.40;99.90
12604;DHT22;6367;52.508;13.284;2023-12-04T00:49:23;1.40;99.90
12604;DHT22;6367;52.508;13.284;2023-12-04T00:51:49;1.80;99.90
12604;DHT22;6367;52.508;13.284;2023-12-04T00:54:15;1.50;99.90
12604;DHT22;6367;52.508;13.284;2023-12-04T00:56:41;1.30;99.90
12604;DHT22;6367;52.508;13.284;2023-12-04T00:59:10;1.30;99.90
12604;DHT22;6367;52.508;13.284;2023-12-04T01:01:39;1.30;99.90
12604;DHT22;6367;52.508;13.284;2023-12-04T01:04:05;1.30;99.90
12604;DHT22;6367;52.508;13.284;2023-12-04T01:06:30;1.20;99.90
12604;DHT22;6367;52.508;13.284;2023-12-04T01:08:56;1.70;99.90
12604;DHT22;6367;52.508;13.284;2023-12-04T01:11:22;1.10;99.90
12604;DHT22;6367;52.508;13.284;2023-12-04T01:13:49;1.90;99.90
12604;DHT22;6367;52.508;13.284;2023-12-04T01:16:15;1.10;99.90
12604;DHT22;6367;52.508;13.284;2023-12-04T01:18:41;1.20;99.90
12604;DHT22;6367;52.508;13.284;2023-12-04T01:21:07;1.80;99.90
12604;DHT22;6367;52.508;13.284;2023-12-04T01:23:34;1.10;99.90
12604;DHT22;6367;52.508;13.284;2023-12-04T01:26:01;1.20;99.90
12604;DHT22;6367;52.508;13.284;2023-12-04T01:28:26;2.00;99.90
12604;DHT22;6367;52.508;13.284;2023-12-04T01:30:52;1.20;99.90
12604;DHT22;6367;52.508;13.284;2023-12-04T01:33:18;1.20;99.90
12604;DHT22;6367;52.508;13.284;2023-12-04T01:35:43;1.90;99.90
12604;DHT22;6367;52.508;13.284;2023-12-04T01:38:09;2.10;99.90
12604;DHT22;6367;52.508;13.284;2023-12-04T01:40:35;1.30;99.90
12604;DHT22;6367;52.508;13.284;2023-12-04T01:43:01;1.30;99.90
12604;DHT22;6367;52.508;13.284;2023-12-04T01:45:26;1.20;99.90
12604;DHT22;6367;52.508;13.284;2023-12-04T01:47:52;2.10;99.90
12604;DHT22;6367;52.508;13.284;2023-12-04T01:50:18;1.20;99.90
12604;DHT22;6367;52.508;13.284;2023-12-04T01:52:44;1.30;99.90
12604;DHT22;6367;52.508;13.284;2023-12-04T01:55:10;1.30;99.90
12604;DHT22;6367;52.508;13.284;2023-12-04T01:57:36;1.30;99.90
12604;DHT22;6367;52.508;13.284;2023-12-04T02:00:02;2.10;99.90
12604;DHT22;6367;52.508;13.284;2023-12-04T02:02:28;1.30;99.90
12604;DHT22;6367;52.508;13.284;2023-12-04T02:04:55;1.30;99.90
12604;DHT22;6367;52.508;13.284;2023-12-04T02:07:22;1.20;99.90
12604;DHT22;6367;52.508;13.284;2023-12-04T02:09:47;1.30;99.90
12604;DHT22;6367;52.508;13.284;2023-12-04T02:12:13;1.30;99.90
12604;DHT22;6367;52.508;13.284;2023-12-04T02:14:38;1.30;99.90
12604;DHT22;6367;52.508;13.284;2023-12-04T02:17:05;1.30;99.90
12604;DHT22;6367;52.508;13.284;2023-12-04T02:19:32;1.30;99.90
12604;DHT22;6367;52.508;13.284;2023-12-04T02:21:57;2.00;99.90
12604;DHT22;6367;52.508;13.284;2023-12-04T02:24:23;1.20;99.90
12604;DHT22;6367;52.508;13.284;2023-12-04T02:26:59;1.20;99.90
12604;DHT22;6367;52.508;13.284;2023-12-04T02:29:32;1.20;99.90
12604;DHT22;6367;52.508;13.284;2023-12-04T02:32:04;1.50;99.90
12604;DHT22;6367;52.508;13.284;2023-12-04T02:34:32;1.20;99.90
12604;DHT22;6367;52.508;13.284;2023-12-04T02:36:59;1.20;99.90
12604;DHT22;6367;52.508;13.284;2023-12-04T02:39:27;1.20;99.90
12604;DHT22;6367;52.508;13.284;2023-12-04T02:41:52;1.90;99.90
12604;DHT22;6367;52.508;13.284;2023-12-04T02:44:18;1.20;99.90
12604;DHT22;6367;52.508;13.284;2023-12-04T02:46:43;1.20;99.90
12604;DHT22;6367;52.508;13.284;2023-12-04T02:49:09;1.20;99.90
12604;DHT22;6367;52.508;13.284;2023-12-04T02:51:35;1.80;99.90
12604;DHT22;6367;52.508;13.284;2023-12-04T02:54:00;1.10;99.90
12604;DHT22;6367;52.508;13.284;2023-12-04T02:56:26;1.00;99.90
12604;DHT22;6367;52.508;13.284;2023-12-04T02:58:52;1.70;99.90
12604;DHT22;6367;52.508;13.284;2023-12-04T03:01:17;1.00;99.90
12604;DHT22;6367;52.508;13.284;2023-12-04T03:03:43;0.90;99.90
12604;DHT22;6367;52.508;13.284;2023-12-04T03:06:09;0.90;99.90
12604;DHT22;6367;52.508;13.284;2023-12-04T03:08:34;0.90;99.90
12604;DHT22;6367;52.508;13.284;2023-12-04T03:11:01;0.90;99.90
12604;DHT22;6367;52.508;13.284;2023-12-04T03:13:28;0.90;99.90
12604;DHT22;6367;52.508;13.284;2023-12-04T03:15:53;1.40;99.90
12604;DHT22;6367;52.508;13.284;2023-12-04T03:18:19;0.80;99.90
12604;DHT22;6367;52.508;13.284;2023-12-04T03:20:45;0.80;99.90
12604;DHT22;6367;52.508;13.284;2023-12-04T03:23:10;1.50;99.90
12604;DHT22;6367;52.508;13.284;2023-12-04T03:25:36;1.30;99.90
12604;DHT22;6367;52.508;13.284;2023-12-04T03:28:01;1.40;99.90
12604;DHT22;6367;52.508;13.284;2023-12-04T03:30:27;0.70;99.90
12604;DHT22;6367;52.508;13.284;2023-12-04T03:32:53;0.70;99.90
12604;DHT22;6367;52.508;13.284;2023-12-04T03:35:19;0.70;99.90
12604;DHT22;6367;52.508;13.284;2023-12-04T03:37:44;1.30;99.90
12604;DHT22;6367;52.508;13.284;2023-12-04T03:40:10;0.70;99.90
12604;DHT22;6367;52.508;13.284;2023-12-04T03:42:36;0.80;99.90
12604;DHT22;6367;52.508;13.284;2023-12-04T03:45:02;0.80;99.90
12604;DHT22;6367;52.508;13.284;2023-12-04T03:47:28;0.80;99.90
12604;DHT22;6367;52.508;13.284;2023-12-04T03:49:53;0.80;99.90
12604;DHT22;6367;52.508;13.284;2023-12-04T03:52:19;1.50;99.90
12604;DHT22;6367;52.508;13.284;2023-12-04T03:54:45;0.80;99.90
12604;DHT22;6367;52.508;13.284;2023-12-04T03:57:10;1.30;99.90
12604;DHT22;6367;52.508;13.284;2023-12-04T03:59:36;1.20;99.90
12604;DHT22;6367;52.508;13.284;2023-12-04T04:02:02;0.80;99.90
12604;DHT22;6367;52.508;13.284;2023-12-04T04:04:27;0.80;99.90
12604;DHT22;6367;52.508;13.284;2023-12-04T04:06:53;0.80;99.90
12604;DHT22;6367;52.508;13.284;2023-12-04T04:09:19;0.80;99.90
12604;DHT22;6367;52.508;13.284;2023-12-04T04:11:45;0.80;99.90
12604;DHT22;6367;52.508;13.284;2023-12-04T04:14:11;0.90;99.90
12604;DHT22;6367;52.508;13.284;2023-12-04T04:16:37;0.90;99.90
12604;DHT22;6367;52.508;13.284;2023-12-04T04:19:02;1.00;99.90
12604;DHT22;6367;52.508;13.284;2023-12-04T04:21:28;1.70;99.90
12604;DHT22;6367;52.508;13.284;2023-12-04T04:23:54;1.10;99.90
12604;DHT22;6367;52.508;13.284;2023-12-04T04:26:19;0.80;99.90
12604;DHT22;6367;52.508;13.284;2023-12-04T04:28:45;0.70;99.90
12604;DHT22;6367;52.508;13.284;2023-12-04T04:31:10;0.70;99.90
12604;DHT22;6367;52.508;13.284;2023-12-04T04:33:37;0.80;99.90
12604;DHT22;6367;52.508;13.284;2023-12-04T04:36:03;0.80;99.90
12604;DHT22;6367;52.508;13.284;2023-12-04T04:38:28;0.80;99.90
12604;DHT22;6367;52.508;13.284;2023-12-04T04:40:54;0.80;99.90
12604;DHT22;6367;52.508;13.284;2023-12-04T04:43:20;0.90;99.90
12604;DHT22;6367;52.508;13.284;2023-12-04T04:45:46;0.80;99.90
12604;DHT22;6367;52.508;13.284;2023-12-04T04:48:12;0.80;99.90
12604;DHT22;6367;52.508;13.284;2023-12-04T04:50:37;0.80;99.90
12604;DHT22;6367;52.508;13.284;2023-12-04T04:53:03;0.80;99.90
12604;DHT22;6367;52.508;13.284;2023-12-04T04:55:29;0.80;99.90
12604;DHT22;6367;52.508;13.284;2023-12-04T04:57:55;1.30;99.90
12604;DHT22;6367;52.508;13.284;2023-12-04T05:00:21;1.40;99.90
12604;DHT22;6367;52.508;13.284;2023-12-04T05:02:47;1.00;99.90
12604;DHT22;6367;52.508;13.284;2023-12-04T05:05:12;1.30;99.90
12604;DHT22;6367;52.508;13.284;2023-12-04T05:07:38;0.60;99.90
12604;DHT22;6367;52.508;13.284;2023-12-04T05:10:04;0.80;99.90
12604;DHT22;6367;52.508;13.284;2023-12-04T05:12:30;0.40;99.90
12604;DHT22;6367;52.508;13.284;2023-12-04T05:14:55;0.50;99.90
12604;DHT22;6367;52.508;13.284;2023-12-04T05:17:21;0.40;99.90
12604;DHT22;6367;52.508;13.284;2023-12-04T05:19:47;0.40;99.90
12604;DHT22;6367;52.508;13.284;2023-12-04T05:22:12;1.20;99.90
12604;DHT22;6367;52.508;13.284;2023-12-04T05:24:38;1.00;99.90
12604;DHT22;6367;52.508;13.284;2023-12-04T05:27:04;0.50;99.90
12604;DHT22;6367;52.508;13.284;2023-12-04T05:29:29;0.50;99.90
12604;DHT22;6367;52.508;13.284;2023-12-04T05:31:55;0.80;99.90
12604;DHT22;6367;52.508;13.284;2023-12-04T05:34:23;0.50;99.90
12604;DHT22;6367;52.508;13.284;2023-12-04T05:36:48;0.60;99.90
12604;DHT22;6367;52.508;13.284;2023-12-04T05:39:14;1.10;99.90
12604;DHT22;6367;52.508;13.284;2023-12-04T05:41:40;1.20;99.90
12604;DHT22;6367;52.508;13.284;2023-12-04T05:44:05;0.70;99.90
12604;DHT22;6367;52.508;13.284;2023-12-04T05:46:31;1.60;99.90
12604;DHT22;6367;52.508;13.284;2023-12-04T05:48:58;1.40;99.90
12604;DHT22;6367;52.508;13.284;2023-12-04T05:51:23;0.90;99.90
12604;DHT22;6367;52.508;13.284;2023-12-04T05:53:49;1.60;99.90
12604;DHT22;6367;52.508;13.284;2023-12-04T05:56:15;0.80;99.90
12604;DHT22;6367;52.508;13.284;2023-12-04T05:58:40;0.80;99.90
12604;DHT22;6367;52.508;13.284;2023-12-04T06:01:06;0.90;99.90
12604;DHT22;6367;52.508;13.284;2023-12-04T06:03:32;0.80;99.90
12604;DHT22;6367;52.508;13.284;2023-12-04T06:05:58;0.80;99.90
12604;DHT22;6367;52.508;13.284;2023-12-04T06:08:23;0.80;99.90
12604;DHT22;6367;52.508;13.284;2023-12-04T06:10:49;0.90;99.90
12604;DHT22;6367;52.508;13.284;2023-12-04T06:13:15;0.90;99.90
12604;DHT22;6367;52.508;13.284;2023-12-04T06:15:41;0.90;99.90
12604;DHT22;6367;52.508;13.284;2023-12-04T06:18:06;0.90;99.90
12604;DHT22;6367;52.508;13.284;2023-12-04T06:20:32;0.90;99.90
12604;DHT22;6367;52.508;13.284;2023-12-04T06:22:58;0.90;99.90
12604;DHT22;6367;52.508;13.284;2023-12-04T06:25:25;0.90;99.90
12604;DHT22;6367;52.508;13.284;2023-12-04T06:27:51;0.80;99.90
12604;DHT22;6367;52.508;13.284;2023-12-04T06:30:17;0.80;99.90
12604;DHT22;6367;52.508;13.284;2023-12-04T06:32:43;0.90;99.90
12604;DHT22;6367;52.508;13.284;2023-12-04T06:35:09;1.00;99.90
12604;DHT22;6367;52.508;13.284;2023-12-04T06:37:38;1.10;99.90
12604;DHT22;6367;52.508;13.284;2023-12-04T06:40:04;1.10;99.90
12604;DHT22;6367;52.508;13.284;2023-12-04T06:42:34;1.10;99.90
12604;DHT22;6367;52.508;13.284;2023-12-04T06:45:00;1.10;99.90
12604;DHT22;6367;52.508;13.284;2023-12-04T06:47:27;1.10;99.90
12604;DHT22;6367;52.508;13.284;2023-12-04T06:49:54;1.00;99.90
12604;DHT22;6367;52.508;13.284;2023-12-04T06:52:19;1.00;99.90
12604;DHT22;6367;52.508;13.284;2023-12-04T06:54:45;0.90;99.90
12604;DHT22;6367;52.508;13.284;2023-12-04T06:57:11;1.60;99.90
12604;DHT22;6367;52.508;13.284;2023-12-04T06:59:41;0.90;99.90
12604;DHT22;6367;52.508;13.284;2023-12-04T07:02:07;1.20;99.90
12604;DHT22;6367;52.508;13.284;2023-12-04T07:04:32;0.80;99.90
12604;DHT22;6367;52.508;13.284;2023-12-04T07:06:58;0.80;99.90
12604;DHT22;6367;52.508;13.284;2023-12-04T07:09:32;1.40;99.90
12604;DHT22;6367;52.508;13.284;2023-12-04T07:12:02;0.90;99.90
12604;DHT22;6367;52.508;13.284;2023-12-04T07:14:30;0.80;99.90
12604;DHT22;6367;52.508;13.284;2023-12-04T07:16:56;0.80;99.90
12604;DHT22;6367;52.508;13.284;2023-12-04T07:19:22;1.60;99.90
12604;DHT22;6367;52.508;13.284;2023-12-04T07:21:48;0.90;99.90
12604;DHT22;6367;52.508;13.284;2023-12-04T07:24:14;0.80;99.90
12604;DHT22;6367;52.508;13.284;2023-12-04T07:26:39;1.50;99.90
12604;DHT22;6367;52.508;13.284;2023-12-04T07:29:05;0.90;99.90
12604;DHT22;6367;52.508;13.284;2023-12-04T07:31:31;0.90;99.90
12604;DHT22;6367;52.508;13.284;2023-12-04T07:33:56;0.90;99.90
12604;DHT22;6367;52.508;13.284;2023-12-04T07:36:22;1.00;99.90
12604;DHT22;6367;52.508;13.284;2023-12-04T07:38:49;1.00;99.90
12604;DHT22;6367;52.508;13.284;2023-12-04T07:41:17;1.60;99.90
12604;DHT22;6367;52.508;13.284;2023-12-04T07:43:43;1.00;99.90
12604;DHT22;6367;52.508;13.284;2023-12-04T07:46:12;1.10;99.90
12604;DHT22;6367;52.508;13.284;2023-12-04T07:48:39;1.10;99.90
12604;DHT22;6367;52.508;13.284;2023-12-04T07:51:06;1.30;99.90
12604;DHT22;6367;52.508;13.284;2023-12-04T07:53:31;1.20;99.90
12604;DHT22;6367;52.508;13.284;2023-12-04T07:55:57;1.20;99.90
12604;DHT22;6367;52.508;13.284;2023-12-04T07:58:25;1.20;99.90
12604;DHT22;6367;52.508;13.284;2023-12-04T08:00:51;2.20;99.90
12604;DHT22;6367;52.508;13.284;2023-12-04T08:03:17;1.30;99.90
12604;DHT22;6367;52.508;13.284;2023-12-04T08:05:42;2.10;99.90
12604;DHT22;6367;52.508;13.284;2023-12-04T08:08:08;1.30;99.90
12604;DHT22;6367;52.508;13.284;2023-12-04T08:10:33;1.30;99.90
12604;DHT22;6367;52.508;13.284;2023-12-04T08:12:59;1.60;99.90
12604;DHT22;6367;52.508;13.284;2023-12-04T08:15:25;1.60;99.90
12604;DHT22;6367;52.508;13.284;2023-12-04T08:17:51;1.30;99.90
12604;DHT22;6367;52.508;13.284;2023-12-04T08:20:17;1.40;99.90
12604;DHT22;6367;52.508;13.284;2023-12-04T08:22:42;1.50;99.90
12604;DHT22;6367;52.508;13.284;2023-12-04T08:25:11;1.50;99.90
12604;DHT22;6367;52.508;13.284;2023-12-04T08:27:37;1.60;99.90
12604;DHT22;6367;52.508;13.284;2023-12-04T08:30:04;1.60;99.90
12604;DHT22;6367;52.508;13.284;2023-12-04T08:32:30;1.60;99.90
12604;DHT22;6367;52.508;13.284;2023-12-04T08:34:56;1.70;99.90
12604;DHT22;6367;52.508;13.284;2023-12-04T08:37:22;1.70;99.90
12604;DHT22;6367;52.508;13.284;2023-12-04T08:39:47;1.70;99.90
12604;DHT22;6367;52.508;13.284;2023-12-04T08:42:13;2.00;99.90
12604;DHT22;6367;52.508;13.284;2023-12-04T08:44:39;1.60;99.90
12604;DHT22;6367;52.508;13.284;2023-12-04T08:47:05;1.80;99.90
12604;DHT22;6367;52.508;13.284;2023-12-04T08:49:32;1.80;99.90
12604;DHT22;6367;52.508;13.284;2023-12-04T08:51:58;1.80;99.90
12604;DHT22;6367;52.508;13.284;2023-12-04T08:54:24;1.80;99.90
12604;DHT22;6367;52.508;13.284;2023-12-04T08:56:49;1.80;99.90
12604;DHT22;6367;52.508;13.284;2023-12-04T08:59:15;1.70;99.90
12604;DHT22;6367;52.508;13.284;2023-12-04T09:01:42;1.70;99.90
12604;DHT22;6367;52.508;13.284;2023-12-04T09:04:08;2.10;99.90
12604;DHT22;6367;52.508;13.284;2023-12-04T09:06:35;1.80;99.90
12604;DHT22;6367;52.508;13.284;2023-12-04T09:09:01;2.40;99.90
12604;DHT22;6367;52.508;13.284;2023-12-04T09:11:27;1.80;99.90
12604;DHT22;6367;52.508;13.284;2023-12-04T09:13:54;2.60;99.90
12604;DHT22;6367;52.508;13.284;2023-12-04T09:16:19;2.00;99.90
12604;DHT22;6367;52.508;13.284;2023-12-04T09:18:45;2.00;99.90
12604;DHT22;6367;52.508;13.284;2023-12-04T09:21:12;2.00;99.90
12604;DHT22;6367;52.508;13.284;2023-12-04T09:23:37;2.10;99.90
12604;DHT22;6367;52.508;13.284;2023-12-04T09:26:03;2.00;99.90
12604;DHT22;6367;52.508;13.284;2023-12-04T09:28:29;2.00;99.90
12604;DHT22;6367;52.508;13.284;2023-12-04T09:30:55;2.00;99.90
12604;DHT22;6367;52.508;13.284;2023-12-04T09:33:20;2.60;99.90
12604;DHT22;6367;52.508;13.284;2023-12-04T09:35:46;1.90;99.90
12604;DHT22;6367;52.508;13.284;2023-12-04T09:38:11;2.00;99.90
12604;DHT22;6367;52.508;13.284;2023-12-04T09:40:37;2.80;99.90
12604;DHT22;6367;52.508;13.284;2023-12-04T09:43:03;2.50;99.90
12604;DHT22;6367;52.508;13.284;2023-12-04T09:45:32;2.00;99.90
12604;DHT22;6367;52.508;13.284;2023-12-04T09:47:58;2.00;99.90
12604;DHT22;6367;52.508;13.284;2023-12-04T09:50:25;1.90;99.90
12604;DHT22;6367;52.508;13.284;2023-12-04T09:52:51;1.80;99.90
12604;DHT22;6367;52.508;13.284;2023-12-04T09:55:20;1.90;99.90
12604;DHT22;6367;52.508;13.284;2023-12-04T09:57:46;1.80;99.90
12604;DHT22;6367;52.508;13.284;2023-12-04T10:00:13;2.20;99.90
12604;DHT22;6367;52.508;13.284;2023-12-04T10:02:40;1.90;99.90
12604;DHT22;6367;52.508;13.284;2023-12-04T10:05:07;2.00;99.90
12604;DHT22;6367;52.508;13.284;2023-12-04T10:07:33;2.00;99.90
12604;DHT22;6367;52.508;13.284;2023-12-04T10:09:59;2.10;99.90
12604;DHT22;6367;52.508;13.284;2023-12-04T10:12:25;2.10;99.90
12604;DHT22;6367;52.508;13.284;2023-12-04T10:15:10;2.10;99.90
12604;DHT22;6367;52.508;13.284;2023-12-04T10:17:40;2.10;99.90
12604;DHT22;6367;52.508;13.284;2023-12-04T10:20:08;2.10;99.90
12604;DHT22;6367;52.508;13.284;2023-12-04T10:22:51;2.10;99.90
12604;DHT22;6367;52.508;13.284;2023-12-04T10:25:17;2.00;99.90
12604;DHT22;6367;52.508;13.284;2023-12-04T10:27:44;2.10;99.90
12604;DHT22;6367;52.508;13.284;2023-12-04T10:30:21;2.00;99.90
12604;DHT22;6367;52.508;13.284;2023-12-04T10:32:47;2.00;99.90
12604;DHT22;6367;52.508;13.284;2023-12-04T10:35:12;2.40;99.90
12604;DHT22;6367;52.508;13.284;2023-12-04T10:37:39;2.10;99.90
12604;DHT22;6367;52.508;13.284;2023-12-04T10:40:05;2.40;99.90
12604;DHT22;6367;52.508;13.284;2023-12-04T10:42:34;2.10;99.90
12604;DHT22;6367;52.508;13.284;2023-12-04T10:45:00;2.10;99.90
12604;DHT22;6367;52.508;13.284;2023-12-04T10:47:29;2.20;99.90
12604;DHT22;6367;52.508;13.284;2023-12-04T10:49:58;2.20;99.90
12604;DHT22;6367;52.508;13.284;2023-12-04T10:52:24;2.20;99.90
12604;DHT22;6367;52.508;13.284;2023-12-04T10:54:50;2.30;99.90
12604;DHT22;6367;52.508;13.284;2023-12-04T10:57:26;2.70;99.90
12604;DHT22;6367;52.508;13.284;2023-12-04T11:00:03;2.50;99.90
12604;DHT22;6367;52.508;13.284;2023-12-04T11:02:33;2.40;99.90
12604;DHT22;6367;52.508;13.284;2023-12-04T11:05:05;3.10;99.90
12604;DHT22;6367;52.508;13.284;2023-12-04T11:07:41;2.50;99.90
12604;DHT22;6367;52.508;13.284;2023-12-04T11:10:11;3.10;99.90
12604;DHT22;6367;52.508;13.284;2023-12-04T11:12:40;2.40;99.90
12604;DHT22;6367;52.508;13.284;2023-12-04T11:15:13;2.50;99.90
12604;DHT22;6367;52.508;13.284;2023-12-04T11:17:43;2.70;99.90
12604;DHT22;6367;52.508;13.284;2023-12-04T11:20:16;2.50;99.90
12604;DHT22;6367;52.508;13.284;2023-12-04T11:22:43;2.50;99.90
12604;DHT22;6367;52.508;13.284;2023-12-04T11:25:11;2.50;99.90
12604;DHT22;6367;52.508;13.284;2023-12-04T11:27:38;3.20;99.90
12604;DHT22;6367;52.508;13.284;2023-12-04T11:30:05;2.50;99.90
12604;DHT22;6367;52.508;13.284;2023-12-04T11:32:31;2.50;99.90
12604;DHT22;6367;52.508;13.284;2023-12-04T11:34:59;2.90;99.90
12604;DHT22;6367;52.508;13.284;2023-12-04T11:37:28;2.50;99.90
12604;DHT22;6367;52.508;13.284;2023-12-04T11:39:53;2.40;99.90
12604;DHT22;6367;52.508;13.284;2023-12-04T11:42:23;2.50;99.90
12604;DHT22;6367;52.508;13.284;2023-12-04T11:44:51;2.50;99.90
12604;DHT22;6367;52.508;13.284;2023-12-04T11:47:21;2.50;99.90
12604;DHT22;6367;52.508;13.284;2023-12-04T11:49:47;2.50;99.90
12604;DHT22;6367;52.508;13.284;2023-12-04T11:52:12;2.60;99.90
12604;DHT22;6367;52.508;13.284;2023-12-04T11:57:26;3.10;99.90
12604;DHT22;6367;52.508;13.284;2023-12-04T12:05:23;2.80;99.90
12604;DHT22;6367;52.508;13.284;2023-12-04T12:07:49;2.90;99.90
12604;DHT22;6367;52.508;13.284;2023-12-04T12:10:16;2.90;99.90
12604;DHT22;6367;52.508;13.284;2023-12-04T12:12:45;2.90;99.90
12604;DHT22;6367;52.508;13.284;2023-12-04T12:15:11;3.50;99.90
12604;DHT22;6367;52.508;13.284;2023-12-04T12:17:38;2.90;99.90
12604;DHT22;6367;52.508;13.284;2023-12-04T12:20:06;2.80;99.90
12604;DHT22;6367;52.508;13.284;2023-12-04T12:22:33;2.90;99.90
12604;DHT22;6367;52.508;13.284;2023-12-04T12:24:59;2.80;99.90
12604;DHT22;6367;52.508;13.284;2023-12-04T12:27:25;2.80;99.90
12604;DHT22;6367;52.508;13.284;2023-12-04T12:29:51;2.80;99.90
12604;DHT22;6367;52.508;13.284;2023-12-04T12:32:17;3.20;99.90
12604;DHT22;6367;52.508;13.284;2023-12-04T12:34:42;2.80;99.90
12604;DHT22;6367;52.508;13.284;2023-12-04T12:37:08;2.80;99.90
12604;DHT22;6367;52.508;13.284;2023-12-04T12:39:34;3.10;99.90
12604;DHT22;6367;52.508;13.284;2023-12-04T12:42:01;3.00;99.90
12604;DHT22;6367;52.508;13.284;2023-12-04T12:44:27;3.00;99.90
12604;DHT22;6367;52.508;13.284;2023-12-04T12:46:53;3.30;99.90
12604;DHT22;6367;52.508;13.284;2023-12-04T12:49:20;3.00;99.90
12604;DHT22;6367;52.508;13.284;2023-12-04T12:51:46;3.00;99.90
12604;DHT22;6367;52.508;13.284;2023-12-04T12:54:11;3.40;99.90
12604;DHT22;6367;52.508;13.284;2023-12-04T12:56:38;2.90;99.90
12604;DHT22;6367;52.508;13.284;2023-12-04T12:59:04;2.90;99.90
12604;DHT22;6367;52.508;13.284;2023-12-04T13:01:34;2.90;99.90
12604;DHT22;6367;52.508;13.284;2023-12-04T13:04:00;3.50;99.90
12604;DHT22;6367;52.508;13.284;2023-12-04T13:06:26;2.80;99.90
12604;DHT22;6367;52.508;13.284;2023-12-04T13:08:51;2.80;99.90
12604;DHT22;6367;52.508;13.284;2023-12-04T13:11:17;2.70;99.90
12604;DHT22;6367;52.508;13.284;2023-12-04T13:13:44;2.60;99.90
12604;DHT22;6367;52.508;13.284;2023-12-04T13:16:10;2.70;99.90
12604;DHT22;6367;52.508;13.284;2023-12-04T13:18:35;2.60;99.90
12604;DHT22;6367;52.508;13.284;2023-12-04T13:21:03;2.70;99.90
12604;DHT22;6367;52.508;13.284;2023-12-04T13:23:29;2.80;99.90
12604;DHT22;6367;52.508;13.284;2023-12-04T13:25:54;2.80;99.90
12604;DHT22;6367;52.508;13.284;2023-12-04T13:28:20;2.90;99.90
12604;DHT22;6367;52.508;13.284;2023-12-04T13:30:46;2.90;99.90
12604;DHT22;6367;52.508;13.284;2023-12-04T13:33:12;2.80;99.90
12604;DHT22;6367;52.508;13.284;2023-12-04T13:35:38;2.90;99.90
12604;DHT22;6367;52.508;13.284;2023-12-04T13:38:03;2.80;99.90
12604;DHT22;6367;52.508;13.284;2023-12-04T13:40:33;3.50;99.90
12604;DHT22;6367;52.508;13.284;2023-12-04T13:43:00;3.00;99.90
12604;DHT22;6367;52.508;13.284;2023-12-04T13:45:44;2.90;99.90
12604;DHT22;6367;52.508;13.284;2023-12-04T13:48:09;2.90;99.90
12604;DHT22;6367;52.508;13.284;2023-12-04T13:50:35;2.90;99.90
12604;DHT22;6367;52.508;13.284;2023-12-04T13:53:01;3.30;99.90
12604;DHT22;6367;52.508;13.284;2023-12-04T13:55:27;2.80;99.90
12604;DHT22;6367;52.508;13.284;2023-12-04T13:58:15;2.90;99.90
12604;DHT22;6367;52.508;13.284;2023-12-04T14:01:01;2.90;99.90
12604;DHT22;6367;52.508;13.284;2023-12-04T14:03:37;2.90;99.90
12604;DHT22;6367;52.508;13.284;2023-12-04T14:06:03;2.90;99.90
12604;DHT22;6367;52.508;13.284;2023-12-04T14:08:29;3.00;99.90
12604;DHT22;6367;52.508;13.284;2023-12-04T14:10:54;3.10;99.90
12604;DHT22;6367;52.508;13.284;2023-12-04T14:13:20;2.80;99.90
12604;DHT22;6367;52.508;13.284;2023-12-04T14:15:47;2.80;99.90
12604;DHT22;6367;52.508;13.284;2023-12-04T14:18:13;1.60;99.90
12604;DHT22;6367;52.508;13.284;2023-12-04T14:20:38;2.70;99.90
12604;DHT22;6367;52.508;13.284;2023-12-04T14:23:04;2.80;99.90
12604;DHT22;6367;52.508;13.284;2023-12-04T14:25:30;2.90;99.90
12604;DHT22;6367;52.508;13.284;2023-12-04T14:27:56;2.80;99.90
12604;DHT22;6367;52.508;13.284;2023-12-04T14:30:21;2.80;99.90
12604;DHT22;6367;52.508;13.284;2023-12-04T14:32:49;2.80;99.90
12604;DHT22;6367;52.508;13.284;2023-12-04T14:35:15;3.10;99.90
12604;DHT22;6367;52.508;13.284;2023-12-04T14:37:41;2.80;99.90
12604;DHT22;6367;52.508;13.284;2023-12-04T14:40:07;2.80;99.90
12604;DHT22;6367;52.508;13.284;2023-12-04T14:42:36;2.80;99.90
12604;DHT22;6367;52.508;13.284;2023-12-04T14:45:02;2.70;99.90
12604;DHT22;6367;52.508;13.284;2023-12-04T14:47:28;2.50;99.90
12604;DHT22;6367;52.508;13.284;2023-12-04T14:49:53;2.60;99.90
12604;DHT22;6367;52.508;13.284;2023-12-04T14:52:20;2.70;99.90
12604;DHT22;6367;52.508;13.284;2023-12-04T14:54:50;2.70;99.90
12604;DHT22;6367;52.508;13.284;2023-12-04T14:57:34;2.70;99.90
12604;DHT22;6367;52.508;13.284;2023-12-04T15:00:07;2.80;99.90
12604;DHT22;6367;52.508;13.284;2023-12-04T15:02:54;2.80;99.90
12604;DHT22;6367;52.508;13.284;2023-12-04T15:05:39;2.70;99.90
12604;DHT22;6367;52.508;13.284;2023-12-04T15:08:43;2.60;99.90
12604;DHT22;6367;52.508;13.284;2023-12-04T15:11:27;3.20;99.90
12604;DHT22;6367;52.508;13.284;2023-12-04T15:14:11;2.60;99.90
12604;DHT22;6367;52.508;13.284;2023-12-04T15:16:59;2.80;99.90
12604;DHT22;6367;52.508;13.284;2023-12-04T15:19:55;1.60;99.90
12604;DHT22;6367;52.508;13.284;2023-12-04T15:22:36;2.80;99.90
12604;DHT22;6367;52.508;13.284;2023-12-04T15:25:05;2.80;99.90
12604;DHT22;6367;52.508;13.284;2023-12-04T15:27:37;2.90;99.90
12604;DHT22;6367;52.508;13.284;2023-12-04T15:30:04;2.80;99.90
12604;DHT22;6367;52.508;13.284;2023-12-04T15:32:30;2.80;99.90
12604;DHT22;6367;52.508;13.284;2023-12-04T15:34:56;1.80;99.90
12604;DHT22;6367;52.508;13.284;2023-12-04T15:37:22;2.80;99.90
12604;DHT22;6367;52.508;13.284;2023-12-04T15:39:47;2.80;99.90
12604;DHT22;6367;52.508;13.284;2023-12-04T15:42:13;2.20;99.90
12604;DHT22;6367;52.508;13.284;2023-12-04T15:44:39;2.60;99.90
12604;DHT22;6367;52.508;13.284;2023-12-04T15:47:05;3.40;99.90
12604;DHT22;6367;52.508;13.284;2023-12-04T15:49:30;2.50;99.90
12604;DHT22;6367;52.508;13.284;2023-12-04T15:51:56;2.70;99.90